Time;durP1;ratioP1;P1;durP2;ratioP2;P2;SDS_P1;SDS_P2;PMS_P1;PMS_P2;Temp;Humidity;BMP_temperature;BMP_pressure;BME280_temperature;BME280_humidity;BME280_pressure;Samples;Min_cycle;Max_cycle;Signal;HPM_P1;HPM_P2
2021/08/06 00:01:33;;;;;;;11.90;1.65;;;;;;;19.92;93.91;95531.34;5058806;28;20236;-71
2021/08/06 00:04:00;;;;;;;4.25;1.73;;;;;;;19.82;93.38;95525.84;5059429;28;20200;-71
2021/08/06 00:06:27;;;;;;;3.35;1.48;;;;;;;19.83;93.57;95526.63;5058098;28;20200;-71
2021/08/06 00:08:54;;;;;;;4.63;1.95;;;;;;;19.79;93.64;95521.00;5059138;28;20228;-71
2021/08/06 00:11:22;;;;;;;5.70;1.50;;;;;;;19.88;94.29;95522.16;5058890;28;20197;-71
2021/08/06 00:13:48;;;;;;;1.92;1.40;;;;;;;19.79;93.01;95534.38;5058611;28;20205;-71
2021/08/06 00:16:17;;;;;;;4.20;1.48;;;;;;;19.57;92.35;95536.22;5057966;28;20216;-71
2021/08/06 00:18:45;;;;;;;6.47;2.17;;;;;;;19.85;93.25;95533.34;5059120;28;20220;-71
2021/08/06 00:21:11;;;;;;;5.47;1.60;;;;;;;19.81;93.44;95526.88;5057744;28;20231;-71
2021/08/06 00:23:38;;;;;;;4.22;1.40;;;;;;;19.74;93.01;95528.97;5058861;28;20579;-71
2021/08/06 00:26:04;;;;;;;4.13;1.40;;;;;;;19.76;92.54;95528.72;5058334;28;20200;-71
2021/08/06 00:28:30;;;;;;;7.82;1.80;;;;;;;19.70;94.37;95519.81;5059071;28;20204;-71
2021/08/06 00:30:57;;;;;;;3.53;1.60;;;;;;;19.65;92.18;95525.13;5058201;28;20197;-71
2021/08/06 00:33:23;;;;;;;5.50;1.70;;;;;;;19.50;92.46;95523.31;5058160;28;20220;-71
2021/08/06 00:35:51;;;;;;;8.70;4.03;;;;;;;19.44;93.21;95511.75;5057552;28;20200;-71
2021/08/06 00:38:17;;;;;;;5.15;3.08;;;;;;;19.39;94.69;95521.56;5057799;28;20207;-71
2021/08/06 00:40:44;;;;;;;4.28;2.50;;;;;;;19.45;92.63;95523.22;5058073;28;20224;-71
2021/08/06 00:43:10;;;;;;;8.60;2.63;;;;;;;19.46;93.23;95530.19;5055384;28;20233;-71
2021/08/06 00:45:37;;;;;;;4.47;2.28;;;;;;;19.40;94.60;95525.84;5057418;28;20700;-71
2021/08/06 00:48:04;;;;;;;3.45;2.70;;;;;;;19.48;93.78;95528.09;5057965;28;20200;-71
2021/08/06 00:50:31;;;;;;;3.88;2.03;;;;;;;19.33;93.52;95527.91;5057717;28;20200;-71
2021/08/06 00:52:59;;;;;;;2.22;1.42;;;;;;;19.57;93.58;95526.59;5057791;28;20224;-71
2021/08/06 00:55:26;;;;;;;7.15;1.80;;;;;;;19.52;93.73;95523.88;5057340;28;20203;-70
2021/08/06 00:57:52;;;;;;;4.00;2.00;;;;;;;19.40;93.29;95526.66;5057967;28;20208;-71
2021/08/06 01:00:19;;;;;;;5.72;1.45;;;;;;;19.33;93.30;95531.38;5057801;28;20212;-71
2021/08/06 01:02:54;;;;;;;1.73;1.50;;;;;;;19.35;93.32;95523.94;5057432;28;20224;-71
2021/08/06 01:05:28;;;;;;;3.08;1.77;;;;;;;19.27;93.04;95520.88;5056798;28;20716;-71
2021/08/06 01:08:05;;;;;;;4.68;1.60;;;;;;;19.34;93.55;95519.63;5058149;28;20201;-71
2021/08/06 01:10:37;;;;;;;3.65;1.60;;;;;;;19.19;92.95;95513.28;5058053;28;20196;-71
2021/08/06 01:13:09;;;;;;;13.93;3.58;;;;;;;19.27;93.50;95516.34;5057159;28;20240;-71
2021/08/06 01:15:37;;;;;;;3.17;1.50;;;;;;;19.15;93.61;95526.31;5057104;28;20212;-70
2021/08/06 01:18:07;;;;;;;3.22;1.40;;;;;;;19.18;94.00;95520.50;5056617;28;20204;-71
2021/08/06 01:20:36;;;;;;;5.10;1.50;;;;;;;18.85;93.07;95514.38;5057729;28;20220;-71
2021/08/06 01:23:15;;;;;;;1.70;1.33;;;;;;;18.97;92.73;95515.88;5057117;28;20221;-71
2021/08/06 01:25:50;;;;;;;4.30;1.42;;;;;;;18.99;93.19;95512.97;5056848;28;20227;-71
2021/08/06 01:28:18;;;;;;;4.40;1.50;;;;;;;18.83;93.39;95508.47;5057528;28;20232;-71
2021/08/06 01:30:45;;;;;;;4.68;1.65;;;;;;;18.71;92.61;95509.59;5057754;28;20575;-71
2021/08/06 01:33:12;;;;;;;9.93;1.88;;;;;;;18.61;93.14;95507.59;5057190;28;20602;-71
2021/08/06 01:35:39;;;;;;;3.08;1.80;;;;;;;18.53;92.96;95502.69;5057038;28;20196;-71
2021/08/06 01:38:06;;;;;;;3.67;2.03;;;;;;;18.44;92.78;95512.16;5057422;28;20200;-71
2021/08/06 01:40:45;;;;;;;4.72;1.90;;;;;;;18.80;91.17;95508.97;5056565;28;20217;-71
2021/08/06 01:43:20;;;;;;;4.82;2.35;;;;;;;18.74;91.32;95507.28;5054741;28;20270;-70
2021/08/06 01:45:55;;;;;;;6.72;2.25;;;;;;;18.94;91.71;95502.25;5056050;28;20209;-71
2021/08/06 01:48:31;;;;;;;12.40;3.55;;;;;;;18.88;91.10;95502.41;5056327;28;20730;-71
2021/08/06 01:50:57;;;;;;;4.82;1.65;;;;;;;18.69;90.57;95501.84;5056588;28;20211;-71
2021/08/06 01:53:27;;;;;;;4.60;1.55;;;;;;;18.67;91.48;95501.31;5057408;28;20224;-71
2021/08/06 01:55:56;;;;;;;4.13;1.70;;;;;;;18.77;91.59;95498.75;5056614;28;20945;-71
2021/08/06 01:58:25;;;;;;;7.57;1.60;;;;;;;18.62;91.43;95503.06;5056581;28;20201;-71
2021/08/06 02:00:54;;;;;;;5.15;1.88;;;;;;;18.48;92.47;95501.78;5056787;28;20220;-71
2021/08/06 02:03:22;;;;;;;5.63;1.80;;;;;;;18.39;92.23;95501.38;5056113;28;20223;-71
2021/08/06 02:05:50;;;;;;;6.97;2.03;;;;;;;18.44;93.76;95492.66;5056256;28;20287;-71
2021/08/06 02:08:18;;;;;;;5.18;1.75;;;;;;;18.54;92.44;95488.28;5056608;28;20204;-71
2021/08/06 02:10:44;;;;;;;8.55;2.00;;;;;;;18.47;93.67;95484.97;5056769;28;20200;-71
2021/08/06 02:13:12;;;;;;;5.00;2.22;;;;;;;18.45;92.02;95489.72;5057086;28;20220;-70
2021/08/06 02:15:42;;;;;;;4.43;1.88;;;;;;;18.58;93.06;95481.41;5056208;28;20208;-71
2021/08/06 02:18:11;;;;;;;4.35;1.80;;;;;;;18.40;92.88;95475.50;5056403;28;20628;-71
2021/08/06 02:20:38;;;;;;;5.25;1.60;;;;;;;18.38;92.25;95478.44;5056829;28;20246;-71
2021/08/06 02:23:07;;;;;;;7.45;1.90;;;;;;;18.49;93.02;95482.06;5057430;28;20220;-71
2021/08/06 02:25:34;;;;;;;8.68;1.70;;;;;;;18.31;91.55;95481.50;5055991;28;20201;-70
2021/08/06 02:28:02;;;;;;;6.53;1.80;;;;;;;18.47;92.24;95484.97;5056861;28;20669;-71
2021/08/06 02:30:30;;;;;;;8.75;1.90;;;;;;;18.34;93.20;95482.63;5056715;28;20292;-71
2021/08/06 02:32:59;;;;;;;2.95;1.80;;;;;;;18.43;92.73;95491.84;5056826;28;20216;-71
2021/08/06 02:35:26;;;;;;;11.73;2.10;;;;;;;18.33;93.11;95482.88;5056055;28;20196;-70
2021/08/06 02:37:52;;;;;;;5.50;1.88;;;;;;;18.37;93.50;95471.47;5056404;28;20215;-70
2021/08/06 02:40:19;;;;;;;5.20;1.92;;;;;;;18.22;93.18;95480.28;5056171;28;20224;-71
2021/08/06 02:42:47;;;;;;;2.67;1.80;;;;;;;18.09;93.77;95478.72;5053246;28;20570;-71
2021/08/06 02:45:14;;;;;;;6.80;1.88;;;;;;;18.03;93.51;95476.19;5056546;28;20212;-70
2021/08/06 02:47:42;;;;;;;5.53;1.90;;;;;;;18.16;93.51;95475.88;5052563;28;20211;-70
2021/08/06 02:50:12;;;;;;;5.40;2.00;;;;;;;18.15;92.90;95476.94;5056284;28;20266;-70
2021/08/06 02:52:38;;;;;;;3.10;1.73;;;;;;;18.15;93.36;95468.91;5056666;28;20221;-71
2021/08/06 02:55:05;;;;;;;3.70;2.05;;;;;;;18.14;94.09;95473.47;5057377;28;20262;-70
2021/08/06 02:57:32;;;;;;;15.50;2.17;;;;;;;18.07;93.80;95469.31;5055237;28;20669;-71
2021/08/06 02:59:59;;;;;;;8.85;2.05;;;;;;;17.83;93.72;95473.16;5056466;28;20201;-71
2021/08/06 03:02:25;;;;;;;4.80;1.70;;;;;;;18.07;93.80;95464.00;5059638;28;20224;-70
2021/08/06 03:04:52;;;;;;;4.20;1.83;;;;;;;17.98;93.71;95471.56;5059853;28;20207;-70
2021/08/06 03:07:20;;;;;;;4.18;1.90;;;;;;;18.19;92.87;95467.41;5058577;28;20208;-71
2021/08/06 03:09:47;;;;;;;3.25;1.70;;;;;;;17.98;93.32;95468.09;5060456;28;20201;-71
2021/08/06 03:12:13;;;;;;;7.63;2.55;;;;;;;18.12;92.56;95472.88;5059616;28;21117;-70
2021/08/06 03:14:40;;;;;;;11.45;2.13;;;;;;;18.01;92.85;95464.94;5059850;28;20665;-71
2021/08/06 03:17:07;;;;;;;6.10;1.92;;;;;;;17.99;93.70;95475.06;5058881;28;20212;-70
2021/08/06 03:19:34;;;;;;;9.05;1.88;;;;;;;18.07;93.65;95474.66;5059930;28;20197;-71
2021/08/06 03:22:00;;;;;;;5.72;2.40;;;;;;;17.74;95.16;95475.44;5059156;28;20692;-71
2021/08/06 03:24:28;;;;;;;8.63;1.70;;;;;;;17.89;94.16;95483.66;5059716;28;20204;-70
2021/08/06 03:26:55;;;;;;;7.18;2.00;;;;;;;17.68;94.99;95486.22;5059037;28;20211;-71
2021/08/06 03:29:21;;;;;;;6.32;2.10;;;;;;;17.98;93.83;95484.09;5059401;28;20196;-71
2021/08/06 03:31:47;;;;;;;11.60;4.32;;;;;;;18.07;95.09;95483.47;5059387;28;20221;-70
2021/08/06 03:34:14;;;;;;;10.27;2.25;;;;;;;18.17;94.53;95486.34;5060231;28;20569;-70
2021/08/06 03:36:40;;;;;;;7.22;1.90;;;;;;;18.16;94.56;95476.69;5058412;28;20216;-71
2021/08/06 03:39:07;;;;;;;12.15;2.10;;;;;;;18.26;95.14;95470.75;5060027;28;20211;-70
2021/08/06 03:41:35;;;;;;;7.85;2.10;;;;;;;18.43;94.48;95470.50;5059002;28;20704;-70
2021/08/06 03:44:01;;;;;;;8.10;2.42;;;;;;;18.38;94.71;95472.28;5056269;28;20578;-71
2021/08/06 03:46:27;;;;;;;3.17;2.30;;;;;;;18.34;94.45;95477.31;5058392;28;20196;-71
2021/08/06 03:48:54;;;;;;;13.80;2.90;;;;;;;18.27;94.63;95469.72;5059597;28;20196;-71
2021/08/06 03:51:20;;;;;;;5.97;2.53;;;;;;;18.50;94.62;95460.47;5058996;28;20201;-71
2021/08/06 03:53:47;;;;;;;5.63;2.65;;;;;;;18.57;95.92;95466.44;5058922;28;20200;-71
2021/08/06 03:56:13;;;;;;;5.28;3.13;;;;;;;18.64;94.56;95463.63;5058789;28;20547;-71
2021/08/06 03:58:41;;;;;;;7.00;2.83;;;;;;;18.71;94.09;95464.25;5058795;28;20207;-71
2021/08/06 04:01:07;;;;;;;13.25;3.10;;;;;;;18.65;94.26;95460.69;5059037;28;20706;-71
2021/08/06 04:03:34;;;;;;;5.95;2.80;;;;;;;18.65;94.90;95463.38;5059343;28;20704;-71
2021/08/06 04:06:01;;;;;;;9.45;3.20;;;;;;;18.49;92.36;95468.72;5058483;28;20941;-71
2021/08/06 04:08:27;;;;;;;4.63;3.35;;;;;;;18.55;92.85;95460.53;5058598;28;20311;-71
2021/08/06 04:10:54;;;;;;;7.45;3.17;;;;;;;18.50;92.84;95460.47;5058475;28;21119;-72
2021/08/06 04:13:20;;;;;;;12.45;3.35;;;;;;;18.53;92.82;95464.50;5057832;28;20224;-71
2021/08/06 04:15:48;;;;;;;4.75;2.70;;;;;;;18.52;93.72;95458.38;5056654;28;20213;-71
2021/08/06 04:18:14;;;;;;;9.50;2.72;;;;;;;18.37;93.70;95462.66;5058144;28;20575;-71
2021/08/06 04:20:41;;;;;;;3.95;2.95;;;;;;;18.39;94.62;95457.88;5058896;28;20205;-71
2021/08/06 04:23:07;;;;;;;3.75;2.60;;;;;;;18.47;97.28;95468.97;5058256;28;20228;-71
2021/08/06 04:25:34;;;;;;;9.73;2.85;;;;;;;18.38;96.94;95457.09;5057603;28;20197;-70
2021/08/06 04:28:00;;;;;;;7.45;2.55;;;;;;;18.41;95.80;95459.25;5058627;28;20204;-71
2021/08/06 04:30:27;;;;;;;7.43;2.30;;;;;;;18.28;97.95;95465.97;5058899;28;20204;-71
2021/08/06 04:32:54;;;;;;;8.45;2.33;;;;;;;18.61;96.70;95462.25;5057493;28;20217;-71
2021/08/06 04:35:21;;;;;;;4.97;1.85;;;;;;;18.47;95.53;95455.63;5058130;28;20205;-71
2021/08/06 04:37:49;;;;;;;5.75;2.05;;;;;;;18.78;95.76;95455.00;5058171;28;20282;-71
2021/08/06 04:40:16;;;;;;;2.33;1.90;;;;;;;18.66;95.23;95454.31;5058247;28;20206;-72
2021/08/06 04:42:43;;;;;;;5.60;2.28;;;;;;;18.71;94.11;95456.22;5054219;28;20228;-72
2021/08/06 04:45:11;;;;;;;4.57;2.13;;;;;;;18.91;95.02;95446.63;5058044;28;20244;-70
2021/08/06 04:47:42;;;;;;;10.13;2.22;;;;;;;18.89;93.26;95448.75;5058316;28;20196;-70
2021/08/06 04:50:12;;;;;;;12.43;2.28;;;;;;;19.03;94.70;95455.38;5058104;28;20215;-72
2021/08/06 04:52:38;;;;;;;5.68;2.33;;;;;;;18.76;95.61;95446.47;5058301;28;20583;-71
2021/08/06 04:55:05;;;;;;;5.97;2.13;;;;;;;18.85;93.45;95452.16;5058042;28;20211;-71
2021/08/06 04:57:32;;;;;;;6.72;2.22;;;;;;;19.06;93.79;95447.69;5057253;28;20204;-71
2021/08/06 04:59:58;;;;;;;7.72;2.60;;;;;;;19.18;95.26;95443.03;5057692;28;20608;-71
2021/08/06 05:02:25;;;;;;;10.70;3.15;;;;;;;19.16;92.30;95439.00;5058167;28;20675;-71
2021/08/06 05:04:51;;;;;;;5.85;2.85;;;;;;;19.16;91.92;95447.00;5057140;28;20201;-70
2021/08/06 05:07:19;;;;;;;4.88;2.55;;;;;;;19.30;92.73;95435.69;5057499;28;20205;-71
2021/08/06 05:09:45;;;;;;;4.18;2.20;;;;;;;19.13;91.50;95448.31;5057604;28;20207;-70
2021/08/06 05:12:12;;;;;;;5.47;2.20;;;;;;;19.35;92.30;95437.63;5057587;28;20224;-71
2021/08/06 05:14:39;;;;;;;7.72;2.15;;;;;;;19.32;91.86;95438.94;5057104;28;20208;-72
2021/08/06 05:17:06;;;;;;;14.18;2.20;;;;;;;19.30;96.24;95442.91;5056983;28;20254;-70
2021/08/06 05:19:32;;;;;;;6.10;1.85;;;;;;;19.30;95.72;95449.06;5057903;28;20411;-71
2021/08/06 05:21:59;;;;;;;6.05;1.90;;;;;;;19.41;93.37;95436.63;5057345;28;20235;-70
2021/08/06 05:24:26;;;;;;;3.75;2.05;;;;;;;19.73;91.46;95447.13;5057693;28;20201;-71
2021/08/06 05:26:53;;;;;;;5.28;1.95;;;;;;;19.49;91.09;95449.53;5056112;28;20203;-71
2021/08/06 05:29:19;;;;;;;5.65;1.52;;;;;;;19.33;91.63;95434.38;5057294;28;20196;-70
2021/08/06 05:31:46;;;;;;;3.70;1.90;;;;;;;19.49;93.21;95444.19;5057507;28;20217;-71
2021/08/06 05:34:12;;;;;;;4.40;1.98;;;;;;;19.40;92.68;95440.34;5054070;28;21009;-71
2021/08/06 05:36:39;;;;;;;6.45;2.00;;;;;;;19.37;92.59;95446.19;5056353;28;21263;-71
2021/08/06 05:39:05;;;;;;;7.95;1.80;;;;;;;19.27;94.84;95449.56;5056935;28;20211;-70
2021/08/06 05:41:33;;;;;;;7.53;4.00;;;;;;;19.49;92.42;95449.53;5056722;28;20228;-72
2021/08/06 05:43:59;;;;;;;7.32;2.38;;;;;;;19.05;93.44;95450.56;5054674;28;20564;-71
2021/08/06 05:46:26;;;;;;;8.25;2.45;;;;;;;19.20;93.40;95450.81;5057307;28;20196;-71
2021/08/06 05:48:52;;;;;;;6.15;2.70;;;;;;;19.28;93.10;95458.38;5057070;28;20948;-71
2021/08/06 05:51:19;;;;;;;7.70;2.42;;;;;;;18.93;95.02;95455.22;5057099;28;20208;-70
2021/08/06 05:53:45;;;;;;;5.88;2.78;;;;;;;18.70;96.39;95455.44;5057220;28;20208;-70
2021/08/06 05:56:12;;;;;;;4.60;2.42;;;;;;;18.73;95.41;95470.94;5056227;28;20211;-71
2021/08/06 05:58:41;;;;;;;4.43;2.60;;;;;;;18.80;95.98;95471.59;5057383;28;20204;-70
2021/08/06 06:01:08;;;;;;;3.67;2.42;;;;;;;18.73;95.85;95470.94;5057312;28;20204;-71
2021/08/06 06:03:35;;;;;;;6.72;2.50;;;;;;;18.89;95.80;95470.13;5056205;28;20227;-70
2021/08/06 06:06:01;;;;;;;4.63;2.90;;;;;;;18.84;96.74;95478.06;5057513;28;20682;-70
2021/08/06 06:08:27;;;;;;;5.13;2.60;;;;;;;18.64;96.99;95482.28;5056709;28;20207;-70
2021/08/06 06:10:54;;;;;;;8.85;3.00;;;;;;;18.74;97.31;95487.78;5056489;28;20211;-71
2021/08/06 06:13:21;;;;;;;4.43;2.67;;;;;;;18.46;98.40;95483.34;5057169;28;20227;-70
2021/08/06 06:15:49;;;;;;;4.78;2.53;;;;;;;18.92;97.31;95490.97;5056167;28;20212;-71
2021/08/06 06:18:15;;;;;;;6.03;2.80;;;;;;;18.92;97.94;95490.19;5056233;28;20246;-71
2021/08/06 06:20:42;;;;;;;6.72;2.78;;;;;;;18.96;97.59;95502.78;5057161;28;20200;-71
2021/08/06 06:23:09;;;;;;;6.55;2.75;;;;;;;19.02;97.39;95501.81;5056573;28;20235;-71
2021/08/06 06:25:35;;;;;;;9.63;3.28;;;;;;;18.82;97.12;95501.50;5055823;28;20204;-71
2021/08/06 06:28:05;;;;;;;10.48;2.92;;;;;;;18.85;97.77;95509.03;5056722;28;20213;-71
2021/08/06 06:30:33;;;;;;;4.57;2.85;;;;;;;19.12;96.29;95510.00;5056951;28;20204;-70
2021/08/06 06:33:02;;;;;;;6.45;2.88;;;;;;;19.20;96.74;95512.25;5056526;28;20223;-71
2021/08/06 06:35:30;;;;;;;5.18;2.53;;;;;;;19.02;96.62;95510.63;5055768;28;20231;-70
2021/08/06 06:37:57;;;;;;;7.45;2.22;;;;;;;19.20;95.50;95506.91;5059896;28;20892;-70
2021/08/06 06:40:25;;;;;;;7.65;3.00;;;;;;;19.40;94.06;95510.63;5060398;28;20215;-70
2021/08/06 06:42:51;;;;;;;3.85;2.28;;;;;;;19.42;94.09;95513.84;5060542;28;20236;-70
2021/08/06 06:45:19;;;;;;;5.32;2.47;;;;;;;19.32;94.25;95513.75;5059927;28;20200;-71
2021/08/06 06:47:47;;;;;;;7.00;2.58;;;;;;;19.26;93.13;95504.03;5060275;28;20572;-71
2021/08/06 06:50:16;;;;;;;7.25;2.13;;;;;;;19.59;92.06;95503.94;5059822;28;20540;-70
2021/08/06 06:52:44;;;;;;;5.38;2.92;;;;;;;19.20;94.16;95498.88;5060358;28;20228;-70
2021/08/06 06:55:11;;;;;;;4.90;2.20;;;;;;;19.47;91.18;95489.06;5056505;28;20213;-70
2021/08/06 06:57:42;;;;;;;5.07;2.60;;;;;;;19.72;92.08;95498.97;5059764;28;20679;-70
2021/08/06 07:00:10;;;;;;;6.82;2.72;;;;;;;19.69;91.85;95504.84;5059219;28;20211;-70
2021/08/06 07:02:37;;;;;;;4.32;2.60;;;;;;;19.58;92.97;95507.66;5060174;28;20228;-71
2021/08/06 07:05:04;;;;;;;7.72;3.03;;;;;;;19.56;94.00;95500.94;5059730;28;20219;-70
2021/08/06 07:07:32;;;;;;;5.38;2.78;;;;;;;20.00;92.36;95498.00;5059843;28;20204;-70
2021/08/06 07:09:58;;;;;;;4.28;2.42;;;;;;;19.35;93.93;95499.88;5060059;28;20200;-70
2021/08/06 07:12:25;;;;;;;4.70;2.33;;;;;;;19.22;95.15;95516.28;5059758;28;20220;-70
2021/08/06 07:14:51;;;;;;;3.97;2.33;;;;;;;19.97;91.65;95511.84;5059800;28;20204;-70
2021/08/06 07:17:19;;;;;;;4.20;2.38;;;;;;;20.07;91.51;95515.41;5059878;28;20208;-71
2021/08/06 07:19:45;;;;;;;5.50;2.60;;;;;;;19.61;94.03;95521.31;5060433;28;20265;-70
2021/08/06 07:22:12;;;;;;;6.18;2.60;;;;;;;19.53;94.45;95514.81;5059882;28;21029;-69
2021/08/06 07:24:40;;;;;;;4.50;2.90;;;;;;;19.92;94.51;95515.28;5059267;28;20204;-70
2021/08/06 07:27:06;;;;;;;5.55;2.92;;;;;;;19.59;93.25;95520.75;5059532;28;20205;-69
2021/08/06 07:29:33;;;;;;;4.30;2.00;;;;;;;19.50;93.59;95531.31;5059661;28;20196;-70
2021/08/06 07:32:00;;;;;;;4.75;2.60;;;;;;;19.56;96.30;95525.00;5059397;28;20223;-70
2021/08/06 07:34:26;;;;;;;6.07;2.72;;;;;;;19.97;96.05;95531.38;5059346;28;20215;-69
2021/08/06 07:36:53;;;;;;;4.32;2.13;;;;;;;20.08;93.22;95532.31;5059000;28;20204;-70
2021/08/06 07:39:19;;;;;;;4.68;2.08;;;;;;;20.25;93.87;95525.75;5058685;28;20683;-69
2021/08/06 07:41:47;;;;;;;2.83;1.75;;;;;;;20.17;92.53;95526.22;5059634;28;20595;-70
2021/08/06 07:44:13;;;;;;;7.45;2.30;;;;;;;20.17;92.64;95525.44;5059927;28;20204;-69
2021/08/06 07:46:40;;;;;;;2.00;1.77;;;;;;;20.42;93.07;95531.84;5057714;28;20211;-70
2021/08/06 07:49:07;;;;;;;4.32;2.60;;;;;;;20.32;91.89;95526.38;5059354;28;20205;-70
2021/08/06 07:51:33;;;;;;;2.53;1.40;;;;;;;20.27;90.39;95526.34;5059293;28;20220;-70
2021/08/06 07:54:02;;;;;;;4.85;2.08;;;;;;;20.69;90.41;95527.25;5057414;28;20208;-69
2021/08/06 07:56:28;;;;;;;3.97;1.60;;;;;;;20.52;90.06;95531.91;5058162;28;20196;-70
2021/08/06 07:58:56;;;;;;;3.95;1.90;;;;;;;20.68;89.12;95526.41;5059359;28;20205;-70
2021/08/06 08:01:23;;;;;;;1.80;1.50;;;;;;;20.58;88.98;95530.88;5058626;28;20210;-70
2021/08/06 08:03:49;;;;;;;4.32;1.70;;;;;;;21.09;87.66;95529.19;5058962;28;20224;-70
2021/08/06 08:06:16;;;;;;;3.22;1.67;;;;;;;20.82;86.02;95535.66;5058147;28;20197;-70
2021/08/06 08:08:42;;;;;;;2.75;1.50;;;;;;;21.11;87.44;95539.63;5058562;28;20588;-69
2021/08/06 08:11:09;;;;;;;10.18;2.60;;;;;;;21.09;86.03;95542.56;5058940;28;20201;-69
2021/08/06 08:13:36;;;;;;;11.75;2.95;;;;;;;21.36;85.66;95545.94;5058474;28;20239;-70
2021/08/06 08:16:05;;;;;;;4.47;1.77;;;;;;;21.56;84.26;95546.06;5058125;28;20212;-71
2021/08/06 08:18:32;;;;;;;2.17;1.40;;;;;;;21.32;84.45;95552.06;5058224;28;20207;-70
2021/08/06 08:20:59;;;;;;;1.80;1.30;;;;;;;21.21;83.18;95551.22;5059203;28;20205;-70
2021/08/06 08:23:26;;;;;;;4.25;1.40;;;;;;;21.62;82.37;95553.09;5058280;28;20224;-70
2021/08/06 08:25:54;;;;;;;2.28;1.40;;;;;;;21.44;83.89;95554.28;5057527;28;20586;-71
2021/08/06 08:28:22;;;;;;;3.28;1.40;;;;;;;21.35;83.06;95540.84;5058173;28;20200;-71
2021/08/06 08:30:49;;;;;;;2.70;1.30;;;;;;;21.16;81.61;95542.34;5059703;28;20239;-70
2021/08/06 08:33:17;;;;;;;2.90;1.80;;;;;;;21.38;81.57;95543.81;5058287;28;20220;-71
2021/08/06 08:35:44;;;;;;;2.83;1.40;;;;;;;21.21;82.38;95543.19;5057530;28;20196;-71
2021/08/06 08:38:11;;;;;;;2.63;1.73;;;;;;;22.03;81.52;95531.50;5058309;28;20204;-71
2021/08/06 08:40:38;;;;;;;5.60;1.23;;;;;;;21.68;79.07;95535.97;5058300;28;20196;-70
2021/08/06 08:43:05;;;;;;;1.98;1.17;;;;;;;21.78;77.03;95539.47;5057918;28;20913;-71
2021/08/06 08:45:32;;;;;;;3.25;1.42;;;;;;;21.72;78.75;95537.03;5057139;28;20205;-71
2021/08/06 08:47:59;;;;;;;3.97;1.40;;;;;;;21.61;80.18;95536.19;5058115;28;20208;-71
2021/08/06 08:50:28;;;;;;;3.08;1.25;;;;;;;21.63;78.84;95541.28;5058116;28;20200;-71
2021/08/06 08:52:55;;;;;;;2.67;1.40;;;;;;;22.02;79.95;95529.91;5057918;28;20227;-71
2021/08/06 08:55:21;;;;;;;1.38;0.98;;;;;;;21.51;75.83;95536.16;5054407;28;20197;-70
2021/08/06 08:57:48;;;;;;;2.95;1.52;;;;;;;21.59;77.64;95541.00;5057614;28;20270;-70
2021/08/06 09:00:16;;;;;;;2.70;1.40;;;;;;;21.75;76.07;95555.28;5058290;28;20195;-71
2021/08/06 09:02:43;;;;;;;1.75;1.00;;;;;;;21.62;76.20;95545.03;5057565;28;20232;-70
2021/08/06 09:05:12;;;;;;;4.00;1.55;;;;;;;21.84;75.97;95554.53;5057839;28;20200;-70
2021/08/06 09:07:40;;;;;;;3.13;1.38;;;;;;;22.06;75.95;95553.25;5057366;28;20211;-70
2021/08/06 09:10:09;;;;;;;3.13;1.70;;;;;;;21.83;76.84;95560.97;5058165;28;20200;-71
2021/08/06 09:12:51;;;;;;;1.83;1.30;;;;;;;22.03;74.99;95552.97;5056832;28;20216;-70
2021/08/06 09:15:19;;;;;;;3.20;1.20;;;;;;;21.62;73.31;95563.81;5057026;28;20218;-70
2021/08/06 09:17:46;;;;;;;1.98;1.38;;;;;;;22.00;73.31;95561.56;5057383;28;20204;-71
2021/08/06 09:20:13;;;;;;;2.08;1.20;;;;;;;21.93;74.48;95561.00;5057660;28;20307;-70
2021/08/06 09:22:42;;;;;;;1.65;1.23;;;;;;;22.15;72.40;95548.19;5057030;28;20290;-71
2021/08/06 09:25:14;;;;;;;3.25;1.20;;;;;;;22.04;73.19;95554.59;5057964;28;20204;-70
2021/08/06 09:27:42;;;;;;;2.78;1.70;;;;;;;22.48;73.12;95558.47;5057179;28;20200;-71
2021/08/06 09:30:12;;;;;;;2.13;1.17;;;;;;;22.08;71.80;95552.97;5058120;28;20211;-70
2021/08/06 09:32:47;;;;;;;1.80;1.50;;;;;;;22.54;69.69;95555.53;5057508;28;20598;-70
2021/08/06 09:35:15;;;;;;;5.28;1.10;;;;;;;22.22;69.84;95554.09;5056501;28;20192;-70
2021/08/06 09:37:43;;;;;;;4.63;1.50;;;;;;;22.70;69.33;95551.78;5056626;28;20200;-70
2021/08/06 09:40:13;;;;;;;1.95;1.10;;;;;;;22.69;68.53;95547.47;5058196;28;20208;-71
2021/08/06 09:42:48;;;;;;;1.95;1.20;;;;;;;23.07;69.46;95545.09;5057135;28;20236;-71
2021/08/06 09:45:16;;;;;;;13.85;1.48;;;;;;;22.88;69.00;95546.69;5056223;28;20202;-69
2021/08/06 09:47:45;;;;;;;2.42;1.13;;;;;;;23.35;67.46;95548.00;5055951;28;20245;-70
2021/08/06 09:50:14;;;;;;;2.05;1.00;;;;;;;23.38;66.31;95547.47;5056570;28;20418;-69
2021/08/06 09:52:48;;;;;;;1.17;0.82;;;;;;;23.08;65.16;95545.91;5056668;28;20220;-69
2021/08/06 09:55:20;;;;;;;2.97;1.20;;;;;;;23.34;64.77;95538.34;5053442;28;20559;-69
2021/08/06 09:57:47;;;;;;;4.90;1.38;;;;;;;23.38;66.41;95542.09;5056410;28;20196;-70
2021/08/06 10:00:16;;;;;;;4.05;1.48;;;;;;;23.59;63.88;95534.78;5056578;28;20200;-69
2021/08/06 10:02:43;;;;;;;1.85;1.10;;;;;;;23.62;64.08;95529.63;5056772;28;20228;-69
2021/08/06 10:05:13;;;;;;;5.25;1.08;;;;;;;23.63;64.08;95528.56;5056473;28;20208;-70
2021/08/06 10:07:41;;;;;;;2.28;1.10;;;;;;;22.93;64.79;95540.50;5056692;28;20204;-69
2021/08/06 10:10:12;;;;;;;1.83;1.25;;;;;;;22.82;66.00;95528.97;5056530;28;20208;-70
2021/08/06 10:12:39;;;;;;;1.20;1.10;;;;;;;22.75;66.77;95522.25;5060420;28;20659;-70
2021/08/06 10:15:07;;;;;;;2.63;1.30;;;;;;;23.44;65.94;95524.84;5060465;28;20223;-70
2021/08/06 10:17:34;;;;;;;1.48;0.90;;;;;;;23.19;66.09;95524.09;5060244;28;20204;-70
2021/08/06 10:20:01;;;;;;;3.58;1.40;;;;;;;23.24;67.65;95532.16;5060545;28;20196;-70
2021/08/06 10:22:28;;;;;;;3.75;1.05;;;;;;;22.91;67.18;95535.41;5061094;28;20596;-70
2021/08/06 10:24:55;;;;;;;2.22;0.90;;;;;;;22.68;67.69;95533.25;5060069;28;20199;-70
2021/08/06 10:27:26;;;;;;;1.83;0.90;;;;;;;22.30;66.47;95532.97;5060297;28;20579;-69
2021/08/06 10:29:58;;;;;;;1.52;1.05;;;;;;;22.24;66.99;95539.34;5060805;28;20201;-69
2021/08/06 10:32:25;;;;;;;1.73;1.10;;;;;;;22.03;67.44;95546.81;5060716;28;20220;-70
2021/08/06 10:35:19;;;;;;;1.83;1.30;;;;;;;22.21;67.26;95534.50;5060575;28;20199;-70
2021/08/06 10:37:51;;;;;;;1.20;0.90;;;;;;;22.30;66.39;95521.41;5061219;28;20204;-70
2021/08/06 10:41:03;;;;;;;2.15;1.30;;;;;;;22.31;67.14;95525.69;5060686;28;20208;-72
2021/08/06 10:44:05;;;;;;;1.83;1.10;;;;;;;22.35;66.50;95519.53;5060694;28;20229;-69
2021/08/06 10:46:58;;;;;;;1.83;0.98;;;;;;;22.39;66.34;95515.25;5059620;28;20204;-69
2021/08/06 10:49:26;;;;;;;1.58;1.23;;;;;;;22.04;66.55;95522.38;5045106;28;20294;-69
2021/08/06 10:52:18;;;;;;;2.00;1.20;;;;;;;22.08;66.49;95524.28;5059713;28;20212;-69
2021/08/06 10:54:45;;;;;;;2.88;1.00;;;;;;;22.64;65.65;95520.63;5057488;28;20200;-69
2021/08/06 10:57:28;;;;;;;7.75;1.33;;;;;;;22.67;64.59;95522.78;5058504;28;20219;-69
2021/08/06 10:59:57;;;;;;;1.70;1.15;;;;;;;22.55;65.12;95519.53;5060030;28;20309;-69
2021/08/06 11:02:38;;;;;;;3.22;1.20;;;;;;;22.77;63.76;95514.72;5060363;28;20231;-69
2021/08/06 11:05:39;;;;;;;2.03;1.00;;;;;;;22.68;64.27;95516.31;5060279;28;20224;-69
2021/08/06 11:08:57;;;;;;;1.38;1.10;;;;;;;23.63;61.94;95517.78;5059705;28;20203;-69
2021/08/06 11:11:51;;;;;;;1.13;1.00;;;;;;;23.89;61.83;95508.56;5059671;28;20301;-69
2021/08/06 11:14:36;;;;;;;2.63;0.85;;;;;;;23.59;60.07;95502.50;5059500;28;20291;-69
2021/08/06 11:17:07;;;;;;;4.30;1.00;;;;;;;24.38;59.18;95501.31;5058608;28;20216;-70
2021/08/06 11:19:36;;;;;;;1.60;1.00;;;;;;;24.61;58.50;95499.53;5059547;28;20215;-69
2021/08/06 11:22:06;;;;;;;2.28;1.00;;;;;;;24.45;56.49;95505.28;5058888;28;20231;-70
2021/08/06 11:24:41;;;;;;;2.72;1.20;;;;;;;24.14;57.17;95506.53;5060181;28;20216;-70
2021/08/06 11:27:08;;;;;;;3.20;1.00;;;;;;;23.60;57.83;95506.78;5058849;28;20207;-69
2021/08/06 11:29:35;;;;;;;4.72;1.08;;;;;;;23.44;59.01;95511.41;5059398;28;20197;-70
2021/08/06 11:32:06;;;;;;;4.25;1.17;;;;;;;23.20;57.12;95506.09;5059150;28;20704;-69
2021/08/06 11:34:50;;;;;;;3.78;0.90;;;;;;;23.29;56.08;95515.22;5059963;28;20517;-69
2021/08/06 11:37:16;;;;;;;4.72;1.20;;;;;;;;;;5058349;28;20691;-69
2021/08/06 11:40:05;;;;;;;2.58;0.70;;;;;;;23.03;56.61;95516.34;5059293;28;20735;-69
2021/08/06 11:42:32;;;;;;;2.30;1.05;;;;;;;22.86;56.96;95518.47;5058835;28;20220;-69